Humidity-temperature Sensor

Selected Measurement Type: Relative Humidity

 
Relative Humidity [%]     6 entries per hour
Showing data from 4/2/2016 (00:00:00 Z) to 3/30/2016 (00:01:00 Z)
Previous Next [ Day | 3-Days | 7-Days ]
First Last
Prev [ Day | 3-Days | 7-Days ] Next
First Last

Start Time:     :
End Time:     :     
Time (in GMT) :00 :50 :40 :30 :20 :10
Previous Next [ Day | 3-Days | 7-Days ]
First Last
Prev [ Day | 3-Days | 7-Days ] Next
First Last


123 => good data
MM => data is determined as missing
-- => data not received/configured
Back to Top Back to Top
4/2/2016 00:00 to 23:10 72.96 72.88 72.61 72.88 72.92 73.21
4/1/2016 23:00 to 22:10 72.65 73.27 72.51 72.67 73.25 72.78
4/1/2016 22:00 to 21:10 72.07 74.25 73.58 72.71 72.40 74.35
4/1/2016 21:00 to 20:10 72.23 71.74 74.52 74.08 74.25 72.46
4/1/2016 20:00 to 19:10 76.01 75.64 76.45 77.12 77.95 78.40
4/1/2016 19:00 to 18:10 77.32 78.36 78.34 78.36 77.88 78.65
4/1/2016 18:00 to 17:10 78.40 78.24 80.50 79.54 80.79 80.85
4/1/2016 17:00 to 16:10 80.73 81.39 82.20 82.45 81.83 82.81
4/1/2016 16:00 to 15:10 82.43 83.57 83.41 82.70 83.26 82.43
4/1/2016 15:00 to 14:10 81.79 81.73 82.12 82.85 82.43 82.52
4/1/2016 14:00 to 13:10 82.72 82.70 82.60 82.87 84.07 84.45
4/1/2016 13:00 to 12:10 85.32 86.27 87.17 87.58 87.35 87.75
4/1/2016 12:00 to 11:10 87.56 87.98 88.35 88.95 88.81 88.89
4/1/2016 11:00 to 10:10 88.18 88.70 88.81 88.89 89.12 88.99
4/1/2016 10:00 to 9:10 89.14 88.95 88.74 88.99 88.89 89.26
4/1/2016 09:00 to 8:10 89.24 89.12 88.89 89.33 88.77 88.83
4/1/2016 08:00 to 7:10 89.01 88.74 88.41 88.39 88.29 87.81
4/1/2016 07:00 to 6:10 87.96 87.79 87.93 88.37 87.48 87.25
4/1/2016 06:00 to 5:10 87.62 86.77 86.94 87.25 86.52 86.63
4/1/2016 05:00 to 4:10 86.75 87.08 85.73 85.24 85.17 84.69
4/1/2016 04:00 to 3:10 85.21 83.60 83.66 83.55 83.62 83.16
4/1/2016 03:00 to 2:10 83.91 85.07 84.32 85.65 87.08 86.50
4/1/2016 02:00 to 1:10 87.08 86.52 85.61 82.00 83.41 85.38
4/1/2016 01:00 to 0:10 85.57 85.44 84.55 83.24 84.20 87.04
4/1/2016 00:00 to 23:10 87.00 86.46 86.25 86.40 86.04 84.74
3/31/2016 23:00 to 22:10 84.90 85.26 84.43 84.14 83.95 83.43
3/31/2016 22:00 to 21:10 83.22 83.84 83.22 83.24 84.03 82.97
3/31/2016 21:00 to 20:10 82.60 83.06 81.79 83.76 83.32 84.99
3/31/2016 20:00 to 19:10 87.44 86.31 86.25 87.71 86.61 86.81
3/31/2016 19:00 to 18:10 87.96 87.69 87.12 86.59 86.67 87.31
3/31/2016 18:00 to 17:10 85.05 85.77 84.74 83.26 82.14 80.21
3/31/2016 17:00 to 16:10 81.00 79.32 80.71 81.41 79.17 77.72
3/31/2016 16:00 to 15:10 77.24 77.57 78.28 79.11 79.82 79.07
3/31/2016 15:00 to 14:10 79.54 80.89 81.98 80.38 81.29 81.50
3/31/2016 14:00 to 13:10 81.77 82.41 82.06 82.85 83.82 83.57
3/31/2016 13:00 to 12:10 85.28 86.07 86.07 85.40 85.96 86.77
3/31/2016 12:00 to 11:10 87.50 87.79 87.25 87.56 87.79 87.87
3/31/2016 11:00 to 10:10 87.42 87.31 87.39 85.86 86.05 86.92
3/31/2016 10:00 to 9:10 87.77 88.29 88.75 89.55 84.20 83.82
3/31/2016 09:00 to 8:10 82.58 81.17 79.82 79.27 77.53 78.78
3/31/2016 08:00 to 7:10 76.62 75.93 77.22 78.32 80.36 79.67
3/31/2016 07:00 to 6:10 80.19 76.01 75.21 76.97 76.60 78.34
3/31/2016 06:00 to 5:10 80.09 81.04 80.13 79.05 79.98 80.71
3/31/2016 05:00 to 4:10 77.43 79.52 78.67 78.22 77.01 78.38
3/31/2016 04:00 to 3:10 77.49 78.09 79.25 79.46 78.90 78.19
3/31/2016 03:00 to 2:10 77.03 76.49 75.72 76.57 77.38 76.72
3/31/2016 02:00 to 1:10 75.47 75.52 75.20 75.91 77.18 76.20
3/31/2016 01:00 to 0:10 77.09 76.70 77.70 77.39 77.16 76.24
3/31/2016 00:00 to 23:10 75.10 75.60 75.00 76.26 77.26 77.61
3/30/2016 23:00 to 22:10 74.44 74.17 73.32 72.34 72.26 73.65
3/30/2016 22:00 to 21:10 74.17 74.58 74.35 75.41 76.51 76.91
3/30/2016 21:00 to 20:10 75.64 74.89 75.16 75.99 76.24 77.63
3/30/2016 20:00 to 19:10 75.76 75.41 74.13 74.02 75.43 74.64
3/30/2016 19:00 to 18:10 75.37 76.22 77.63 76.62 77.57 76.35
3/30/2016 18:00 to 17:10 76.93 76.68 76.97 76.26 76.18 76.16
3/30/2016 17:00 to 16:10 75.77 75.74 76.08 76.04 76.04 76.31
3/30/2016 16:00 to 15:10 77.09 75.85 76.10 76.12 77.28 76.91
3/30/2016 15:00 to 14:10 76.28 76.72 76.89 77.99 78.71 79.03
3/30/2016 14:00 to 13:10 78.69 79.34 78.40 78.42 79.01 79.96
3/30/2016 13:00 to 12:10 79.67 81.44 82.97 83.74 83.70 83.72
3/30/2016 12:00 to 11:10 83.59 83.53 83.55 82.12 82.52 82.20
3/30/2016 11:00 to 10:10 81.81 81.66 81.25 81.19 81.00 80.33
3/30/2016 10:00 to 9:10 79.48 79.36 78.73 78.73 78.03 77.86
3/30/2016 09:00 to 8:10 78.40 77.34 77.45 77.22 77.26 77.12
3/30/2016 08:00 to 7:10 76.31 76.22 77.01 76.49 76.97 75.95
3/30/2016 07:00 to 6:10 75.89 75.14 75.02 75.35 74.83 75.21
3/30/2016 06:00 to 5:10 74.85 74.54 74.31 74.06 73.38 74.02
3/30/2016 05:00 to 4:10 74.15 74.39 73.27 72.88 73.02 72.75
3/30/2016 04:00 to 3:10 72.98 73.38 74.04 73.19 74.00 72.88
3/30/2016 03:00 to 2:10 73.56 73.50 74.21 74.19 74.87 73.92
3/30/2016 02:00 to 1:10 74.91 75.49 76.49 76.43 76.70 76.49
3/30/2016 01:00 to 0:10 78.28 78.55 76.10 76.84 77.78 75.91